createdAt,value
2023-01-04T00:04:49.270Z,1.80
2023-01-04T00:09:50.697Z,2.10
2023-01-04T00:14:52.166Z,1.50
2023-01-04T00:19:53.726Z,1.52
2023-01-04T00:24:55.206Z,1.52
2023-01-04T00:29:56.571Z,1.20
2023-01-04T00:34:58.055Z,1.80
2023-01-04T00:39:59.851Z,1.90
2023-01-04T00:45:01.229Z,2.75
2023-01-04T00:50:02.633Z,1.95
2023-01-04T00:55:04.196Z,2.95
2023-01-04T01:00:06.405Z,2.63
2023-01-04T01:05:08.105Z,2.75
2023-01-04T01:10:09.751Z,6.07
2023-01-04T01:15:12.289Z,2.13
2023-01-04T01:20:13.636Z,3.90
2023-01-04T01:25:15.103Z,4.13
2023-01-04T01:30:16.590Z,2.45
2023-01-04T01:35:17.950Z,2.88
2023-01-04T01:40:19.488Z,2.90
2023-01-04T01:45:36.737Z,2.58
2023-01-04T01:51:01.441Z,2.63
2023-01-04T01:56:05.926Z,2.92
2023-01-04T02:01:08.831Z,1.85
2023-01-04T02:06:13.322Z,2.00
2023-01-04T02:11:14.848Z,2.28
2023-01-04T02:16:46.845Z,2.50
2023-01-04T02:22:03.957Z,2.38
2023-01-04T02:27:24.309Z,1.88
2023-01-04T02:32:43.837Z,2.40
2023-01-04T02:38:03.653Z,2.20
2023-01-04T02:43:17.519Z,2.40
2023-01-04T02:48:19.387Z,2.13
2023-01-04T02:53:25.417Z,1.40
2023-01-04T02:58:45.229Z,1.15
2023-01-04T03:04:12.083Z,1.20
2023-01-04T03:09:22.124Z,0.90
2023-01-04T03:14:31.948Z,1.10
2023-01-04T03:19:36.840Z,0.90
2023-01-04T03:24:38.272Z,0.82
2023-01-04T03:29:54.853Z,1.10
2023-01-04T03:35:03.004Z,1.08
2023-01-04T03:40:24.858Z,0.80
2023-01-04T03:45:32.707Z,0.95
2023-01-04T03:50:42.685Z,0.80
2023-01-04T03:55:46.147Z,0.80
2023-01-04T04:00:48.376Z,0.60
2023-01-04T04:05:50.043Z,0.70
2023-01-04T04:10:55.828Z,0.57
2023-01-04T04:15:57.308Z,0.38
2023-01-04T04:20:58.714Z,0.40
2023-01-04T04:26:00.825Z,0.43
2023-01-04T04:31:02.888Z,0.70
2023-01-04T04:36:04.913Z,0.60
2023-01-04T04:41:11.027Z,0.50
2023-01-04T04:46:12.471Z,1.00
2023-01-04T04:51:13.946Z,0.50
2023-01-04T04:56:15.770Z,0.55
2023-01-04T05:01:17.738Z,0.30
2023-01-04T05:06:19.369Z,0.45
2023-01-04T05:11:20.808Z,0.38
2023-01-04T05:16:22.474Z,0.22
2023-01-04T05:21:24.371Z,0.80
2023-01-04T05:26:25.796Z,0.30
2023-01-04T05:31:27.419Z,0.38
2023-01-04T05:36:28.923Z,0.30
2023-01-04T05:41:30.425Z,0.70
2023-01-04T05:46:31.964Z,0.60
2023-01-04T05:51:33.456Z,0.73
2023-01-04T05:56:34.883Z,0.50
2023-01-04T06:01:36.367Z,0.20
2023-01-04T06:06:37.859Z,0.30
2023-01-04T06:11:39.371Z,0.40
2023-01-04T06:16:40.724Z,0.50
2023-01-04T06:21:42.160Z,0.35
2023-01-04T06:26:44.050Z,0.30
2023-01-04T06:31:45.685Z,0.40
2023-01-04T06:36:47.169Z,0.20
2023-01-04T06:41:48.679Z,0.30
2023-01-04T06:46:50.769Z,0.47
2023-01-04T06:51:52.302Z,0.30
2023-01-04T06:56:55.041Z,0.40
2023-01-04T07:01:56.594Z,0.40
2023-01-04T07:06:58.232Z,0.43
2023-01-04T07:11:59.626Z,0.40
2023-01-04T07:17:01.012Z,0.30
2023-01-04T07:22:02.689Z,0.35
2023-01-04T07:27:04.516Z,0.60
2023-01-04T07:32:11.747Z,0.50
2023-01-04T07:37:15.515Z,0.60
2023-01-04T07:42:17.608Z,0.43
2023-01-04T07:47:19.175Z,0.80
2023-01-04T07:52:20.887Z,0.57
2023-01-04T07:57:22.681Z,0.40
2023-01-04T08:02:24.167Z,0.40
2023-01-04T08:07:25.804Z,0.30
2023-01-04T08:12:27.567Z,0.57
2023-01-04T08:17:28.987Z,0.52
2023-01-04T08:22:30.515Z,0.20
2023-01-04T08:27:32.156Z,0.40
2023-01-04T08:32:33.658Z,0.57
2023-01-04T08:37:35.379Z,0.70
2023-01-04T08:42:36.953Z,0.70
2023-01-04T08:47:38.529Z,0.75
2023-01-04T08:52:41.513Z,0.80
2023-01-04T08:57:43.032Z,0.75
2023-01-04T09:02:44.669Z,0.60
2023-01-04T09:07:46.160Z,0.40
2023-01-04T09:12:47.767Z,0.50
2023-01-04T09:18:20.473Z,0.47
2023-01-04T09:23:11.399Z,0.43
2023-01-04T09:28:12.787Z,0.45
2023-01-04T09:33:14.199Z,0.30
2023-01-04T09:38:15.812Z,0.70
2023-01-04T09:43:22.341Z,0.57
2023-01-04T09:48:29.029Z,0.68
2023-01-04T09:54:00.544Z,0.40
2023-01-04T09:59:06.973Z,0.90
2023-01-04T10:04:24.793Z,1.65
2023-01-04T10:09:26.207Z,0.63
2023-01-04T10:14:45.985Z,0.47
2023-01-04T10:25:55.606Z,0.65
2023-01-04T10:31:40.757Z,0.40
2023-01-04T10:36:38.909Z,0.45
2023-01-04T10:41:53.206Z,0.70
2023-01-04T10:47:16.826Z,0.55
2023-01-04T10:52:20.184Z,1.00
2023-01-04T10:57:34.831Z,0.80
2023-01-04T11:02:55.052Z,0.65
2023-01-04T11:08:08.132Z,0.73
2023-01-04T11:13:09.734Z,0.80
2023-01-04T11:18:12.161Z,1.15
2023-01-04T11:23:19.542Z,0.80
2023-01-04T11:28:23.322Z,0.77
2023-01-04T11:33:26.022Z,0.93
2023-01-04T11:38:34.677Z,1.63
2023-01-04T11:43:38.640Z,1.00
2023-01-04T11:48:45.610Z,0.90
2023-01-04T11:53:58.042Z,1.20
2023-01-04T11:59:08.347Z,1.00
2023-01-04T12:04:21.754Z,1.20
2023-01-04T12:09:23.311Z,0.90
2023-01-04T12:14:27.708Z,1.20
2023-01-04T12:19:32.392Z,1.20
2023-01-04T12:24:34.754Z,1.08
2023-01-04T12:30:05.163Z,0.90
2023-01-04T12:35:45.186Z,0.60
2023-01-04T12:40:46.604Z,0.40
2023-01-04T12:45:48.098Z,0.47
2023-01-04T12:51:37.247Z,0.43
2023-01-04T12:57:10.293Z,0.50
2023-01-04T13:02:19.259Z,0.40
2023-01-04T13:07:27.209Z,0.15
2023-01-04T13:13:06.904Z,0.10
2023-01-04T13:18:24.843Z,0.30
2023-01-04T13:23:27.619Z,0.73
2023-01-04T13:28:28.972Z,0.30
2023-01-04T13:33:30.581Z,0.50
2023-01-04T13:38:34.230Z,0.43
2023-01-04T13:43:38.410Z,0.30
2023-01-04T13:48:43.120Z,0.30
2023-01-04T13:53:56.336Z,0.52
2023-01-04T13:58:58.736Z,0.45
2023-01-04T14:04:06.830Z,0.22
2023-01-04T14:09:11.672Z,0.30
2023-01-04T14:14:30.048Z,0.35
2023-01-04T14:19:56.555Z,0.28
2023-01-04T14:25:09.444Z,0.30
2023-01-04T14:30:17.557Z,0.20
2023-01-04T14:35:19.120Z,0.03
2023-01-04T14:40:28.827Z,0.10
2023-01-04T14:45:30.210Z,0.20
2023-01-04T14:50:31.869Z,0.20
2023-01-04T14:55:33.353Z,0.30
2023-01-04T15:00:34.856Z,0.60
2023-01-04T15:05:37.986Z,0.17
2023-01-04T15:10:40.645Z,0.40
2023-01-04T15:15:42.280Z,0.30
2023-01-04T15:20:44.183Z,0.40
2023-01-04T15:25:45.582Z,0.77
2023-01-04T15:30:47.139Z,0.40
2023-01-04T15:35:57.337Z,0.50
2023-01-04T15:41:04.310Z,0.20
2023-01-04T15:46:07.958Z,0.20
2023-01-04T15:51:09.471Z,0.40
2023-01-04T15:56:12.607Z,0.50
2023-01-04T16:01:16.015Z,0.38
2023-01-04T16:06:18.194Z,0.40
2023-01-04T16:11:23.628Z,0.63
2023-01-04T16:16:27.593Z,0.70
2023-01-04T16:21:29.478Z,0.75
2023-01-04T16:26:30.838Z,0.60
2023-01-04T16:31:34.093Z,0.60
2023-01-04T16:36:35.632Z,0.60
2023-01-04T16:41:37.425Z,0.93
2023-01-04T16:46:40.133Z,0.60
2023-01-04T16:51:44.202Z,0.80
2023-01-04T16:56:46.919Z,0.65
2023-01-04T17:01:55.689Z,0.82
2023-01-04T17:06:59.298Z,0.88
2023-01-04T17:17:22.821Z,1.23
2023-01-04T17:22:26.941Z,1.35
2023-01-04T17:27:32.330Z,1.70
2023-01-04T17:32:33.715Z,1.63
2023-01-04T17:37:35.156Z,2.00
2023-01-04T17:42:36.835Z,2.35
2023-01-04T17:47:38.242Z,2.28
2023-01-04T17:52:39.701Z,2.60
2023-01-04T18:02:47.497Z,2.72
2023-01-04T18:07:58.177Z,2.50
2023-01-04T18:12:59.605Z,3.08
2023-01-04T18:18:01.067Z,3.53
2023-01-04T18:23:02.552Z,2.65
2023-01-04T18:28:04.119Z,3.50
2023-01-04T18:33:05.608Z,3.05
2023-01-04T18:38:11.915Z,3.33
2023-01-04T18:43:13.554Z,3.10
2023-01-04T18:48:15.083Z,2.90
2023-01-04T18:53:16.751Z,3.67
2023-01-04T18:58:18.346Z,3.78
2023-01-04T19:03:20.109Z,3.67
2023-01-04T19:08:22.259Z,4.38
2023-01-04T19:13:23.852Z,4.50
2023-01-04T19:18:26.585Z,4.82
2023-01-04T19:23:28.552Z,3.72
2023-01-04T19:28:29.997Z,4.05
2023-01-04T19:33:31.408Z,3.70
2023-01-04T19:38:32.899Z,5.05
2023-01-04T19:43:35.499Z,3.38
2023-01-04T19:48:37.265Z,3.75
2023-01-04T19:53:39.665Z,3.88
2023-01-04T19:58:41.479Z,3.58
2023-01-04T20:03:43.072Z,3.28
2023-01-04T20:08:44.654Z,3.92
2023-01-04T20:13:46.141Z,4.35
2023-01-04T20:18:47.521Z,4.35
2023-01-04T20:23:49.008Z,3.72
2023-01-04T20:28:50.893Z,3.13
2023-01-04T20:33:52.678Z,3.58
2023-01-04T20:38:54.152Z,5.15
2023-01-04T20:43:55.744Z,4.40
2023-01-04T20:48:57.125Z,3.78
2023-01-04T20:53:58.841Z,4.32
2023-01-04T20:59:00.304Z,3.42
2023-01-04T21:04:01.831Z,3.92
2023-01-04T21:09:03.402Z,4.07
2023-01-04T21:14:05.176Z,3.30
2023-01-04T21:19:07.001Z,4.10
2023-01-04T21:24:09.674Z,3.55
2023-01-04T21:29:11.316Z,4.53
2023-01-04T21:34:20.887Z,3.70
2023-01-04T21:39:24.202Z,4.47
2023-01-04T21:44:25.592Z,3.50
2023-01-04T21:49:27.064Z,3.70
2023-01-04T21:54:28.485Z,3.92
2023-01-04T21:59:29.931Z,3.88
2023-01-04T22:04:32.550Z,3.25
2023-01-04T22:09:34.084Z,2.60
2023-01-04T22:14:35.631Z,3.13
2023-01-04T22:19:37.026Z,3.40
2023-01-04T22:24:38.569Z,3.25
2023-01-04T22:29:39.995Z,3.42
2023-01-04T22:34:41.413Z,3.40
2023-01-04T22:39:42.822Z,3.10
2023-01-04T22:44:44.160Z,2.90
2023-01-04T22:49:45.680Z,3.92
2023-01-04T22:54:50.223Z,3.80
2023-01-04T22:59:51.704Z,3.92
2023-01-04T23:04:53.698Z,2.55
2023-01-04T23:09:55.092Z,3.50
2023-01-04T23:14:56.495Z,2.78
2023-01-04T23:19:58.059Z,3.05
2023-01-04T23:24:59.405Z,3.78
2023-01-04T23:30:00.809Z,3.17
2023-01-04T23:35:03.061Z,4.13
2023-01-04T23:40:05.063Z,3.33
2023-01-04T23:45:07.151Z,4.43
2023-01-04T23:50:08.908Z,3.53
2023-01-04T23:55:10.543Z,4.25
